<?xml version="1.0" encoding="UTF-8"?>
<gpx xmlns="http://www.topografix.com/GPX/1/1" xmlns:xsi="http://www.w3.org/2001/XMLSchema-instance" version="1.1" xsi:schemaLocation="http://www.topografix.com/GPX/1/1 http://www.topografix.com/GPX/1/1/gpx.xsd">
  <metadata>
    <name>Coventry Triathlon</name>
  </metadata>
  <trk>
    <name>Coventry Triathlon</name>
    <trkseg>
      <trkpt lat="52.390888" lon="-1.569457">
        <ele>97.214552</ele>
        <time>2025-06-01T09:08:00.000Z</time>
      </trkpt>
      <trkpt lat="52.391317" lon="-1.569441">
        <ele>97.214549</ele>
        <time>2025-06-01T09:08:05.000Z</time>
      </trkpt>
      <trkpt lat="52.391808" lon="-1.569494">
        <ele>97.255872</ele>
        <time>2025-06-01T09:08:10.000Z</time>
      </trkpt>
      <trkpt lat="52.391991" lon="-1.569528">
        <ele>97.998735</ele>
        <time>2025-06-01T09:08:12.000Z</time>
      </trkpt>
      <trkpt lat="52.392151" lon="-1.569582">
        <ele>98.63085</ele>
        <time>2025-06-01T09:08:14.000Z</time>
      </trkpt>
      <trkpt lat="52.392233" lon="-1.569588">
        <ele>98.96645</ele>
        <time>2025-06-01T09:08:15.000Z</time>
      </trkpt>
      <trkpt lat="52.392326" lon="-1.569698">
        <ele>99.400259</ele>
        <time>2025-06-01T09:08:16.000Z</time>
      </trkpt>
      <trkpt lat="52.392447" lon="-1.569967">
        <ele>100.168291</ele>
        <time>2025-06-01T09:08:18.000Z</time>
      </trkpt>
      <trkpt lat="52.392467" lon="-1.570104">
        <ele>100.504507</ele>
        <time>2025-06-01T09:08:19.000Z</time>
      </trkpt>
      <trkpt lat="52.39249" lon="-1.570325">
        <ele>101.02974</ele>
        <time>2025-06-01T09:08:21.000Z</time>
      </trkpt>
      <trkpt lat="52.392628" lon="-1.571939">
        <ele>104.71368</ele>
        <time>2025-06-01T09:08:32.000Z</time>
      </trkpt>
      <trkpt lat="52.392659" lon="-1.572271">
        <ele>105.233769</ele>
        <time>2025-06-01T09:08:34.000Z</time>
      </trkpt>
      <trkpt lat="52.392674" lon="-1.572487">
        <ele>105.601193</ele>
        <time>2025-06-01T09:08:35.000Z</time>
      </trkpt>
      <trkpt lat="52.392717" lon="-1.572933">
        <ele>106.315143</ele>
        <time>2025-06-01T09:08:38.000Z</time>
      </trkpt>
      <trkpt lat="52.392777" lon="-1.573563">
        <ele>107.316157</ele>
        <time>2025-06-01T09:08:42.000Z</time>
      </trkpt>
      <trkpt lat="52.392858" lon="-1.574608">
        <ele>108.960219</ele>
        <time>2025-06-01T09:08:49.000Z</time>
      </trkpt>
      <trkpt lat="52.393025" lon="-1.576334">
        <ele>109.326656</ele>
        <time>2025-06-01T09:09:01.000Z</time>
      </trkpt>
      <trkpt lat="52.393117" lon="-1.577408">
        <ele>109.556479</ele>
        <time>2025-06-01T09:09:08.000Z</time>
      </trkpt>
      <trkpt lat="52.393269" lon="-1.579386">
        <ele>111.325911</ele>
        <time>2025-06-01T09:09:22.000Z</time>
      </trkpt>
      <trkpt lat="52.393275" lon="-1.579969">
        <ele>111.875019</ele>
        <time>2025-06-01T09:09:26.000Z</time>
      </trkpt>
      <trkpt lat="52.393229" lon="-1.582069">
        <ele>114.922814</ele>
        <time>2025-06-01T09:09:40.000Z</time>
      </trkpt>
      <trkpt lat="52.39321" lon="-1.582435">
        <ele>115.523331</ele>
        <time>2025-06-01T09:09:42.000Z</time>
      </trkpt>
      <trkpt lat="52.393118" lon="-1.585275">
        <ele>119.196275</ele>
        <time>2025-06-01T09:10:01.000Z</time>
      </trkpt>
      <trkpt lat="52.393125" lon="-1.585348">
        <ele>119.273105</ele>
        <time>2025-06-01T09:10:02.000Z</time>
      </trkpt>
      <trkpt lat="52.393023" lon="-1.586608">
        <ele>120.456437</ele>
        <time>2025-06-01T09:10:11.000Z</time>
      </trkpt>
      <trkpt lat="52.393002" lon="-1.586847">
        <ele>120.528129</ele>
        <time>2025-06-01T09:10:13.000Z</time>
      </trkpt>
      <trkpt lat="52.39298" lon="-1.587056">
        <ele>120.588932</ele>
        <time>2025-06-01T09:10:14.000Z</time>
      </trkpt>
      <trkpt lat="52.392917" lon="-1.587948">
        <ele>120.85598</ele>
        <time>2025-06-01T09:10:20.000Z</time>
      </trkpt>
      <trkpt lat="52.392779" lon="-1.589392">
        <ele>121.185554</ele>
        <time>2025-06-01T09:10:30.000Z</time>
      </trkpt>
      <trkpt lat="52.392785" lon="-1.589512">
        <ele>121.152104</ele>
        <time>2025-06-01T09:10:31.000Z</time>
      </trkpt>
      <trkpt lat="52.392779" lon="-1.589566">
        <ele>121.134538</ele>
        <time>2025-06-01T09:10:31.000Z</time>
      </trkpt>
      <trkpt lat="52.392749" lon="-1.589729">
        <ele>121.08291</ele>
        <time>2025-06-01T09:10:32.000Z</time>
      </trkpt>
      <trkpt lat="52.392654" lon="-1.590928">
        <ele>120.704967</ele>
        <time>2025-06-01T09:10:40.000Z</time>
      </trkpt>
      <trkpt lat="52.392636" lon="-1.591225">
        <ele>120.610338</ele>
        <time>2025-06-01T09:10:42.000Z</time>
      </trkpt>
      <trkpt lat="52.392611" lon="-1.591441">
        <ele>120.547809</ele>
        <time>2025-06-01T09:10:43.000Z</time>
      </trkpt>
      <trkpt lat="52.392578" lon="-1.5917">
        <ele>120.462083</ele>
        <time>2025-06-01T09:10:45.000Z</time>
      </trkpt>
      <trkpt lat="52.392538" lon="-1.592307">
        <ele>120.183222</ele>
        <time>2025-06-01T09:10:49.000Z</time>
      </trkpt>
      <trkpt lat="52.39253" lon="-1.592549">
        <ele>119.967369</ele>
        <time>2025-06-01T09:10:51.000Z</time>
      </trkpt>
      <trkpt lat="52.392546" lon="-1.592832">
        <ele>119.713516</ele>
        <time>2025-06-01T09:10:53.000Z</time>
      </trkpt>
      <trkpt lat="52.392563" lon="-1.592954">
        <ele>119.606291</ele>
        <time>2025-06-01T09:10:54.000Z</time>
      </trkpt>
      <trkpt lat="52.392723" lon="-1.595022">
        <ele>117.781035</ele>
        <time>2025-06-01T09:11:08.000Z</time>
      </trkpt>
      <trkpt lat="52.392752" lon="-1.595291">
        <ele>117.6691</ele>
        <time>2025-06-01T09:11:10.000Z</time>
      </trkpt>
      <trkpt lat="52.392928" lon="-1.597047">
        <ele>117.088548</ele>
        <time>2025-06-01T09:11:22.000Z</time>
      </trkpt>
      <trkpt lat="52.392041" lon="-1.597419">
        <ele>117.434513</ele>
        <time>2025-06-01T09:11:32.000Z</time>
      </trkpt>
      <trkpt lat="52.39168" lon="-1.597635">
        <ele>118.138773</ele>
        <time>2025-06-01T09:11:36.000Z</time>
      </trkpt>
      <trkpt lat="52.390953" lon="-1.598051">
        <ele>119.521357</ele>
        <time>2025-06-01T09:11:45.000Z</time>
      </trkpt>
      <trkpt lat="52.390544" lon="-1.598279">
        <ele>120.226097</ele>
        <time>2025-06-01T09:11:50.000Z</time>
      </trkpt>
      <trkpt lat="52.390525" lon="-1.598292">
        <ele>120.249767</ele>
        <time>2025-06-01T09:11:50.000Z</time>
      </trkpt>
      <trkpt lat="52.390405" lon="-1.598359">
        <ele>120.378473</ele>
        <time>2025-06-01T09:11:51.000Z</time>
      </trkpt>
      <trkpt lat="52.389659" lon="-1.598699">
        <ele>121.173972</ele>
        <time>2025-06-01T09:12:00.000Z</time>
      </trkpt>
      <trkpt lat="52.389571" lon="-1.598745">
        <ele>121.266291</ele>
        <time>2025-06-01T09:12:01.000Z</time>
      </trkpt>
      <trkpt lat="52.38947" lon="-1.598671">
        <ele>121.382191</ele>
        <time>2025-06-01T09:12:02.000Z</time>
      </trkpt>
      <trkpt lat="52.38936" lon="-1.598484">
        <ele>121.547132</ele>
        <time>2025-06-01T09:12:04.000Z</time>
      </trkpt>
      <trkpt lat="52.388246" lon="-1.594924">
        <ele>118.406246</ele>
        <time>2025-06-01T09:12:31.000Z</time>
      </trkpt>
      <trkpt lat="52.387918" lon="-1.593818">
        <ele>115.487597</ele>
        <time>2025-06-01T09:12:39.000Z</time>
      </trkpt>
      <trkpt lat="52.387732" lon="-1.593224">
        <ele>113.901665</ele>
        <time>2025-06-01T09:12:44.000Z</time>
      </trkpt>
      <trkpt lat="52.387508" lon="-1.592501">
        <ele>111.955816</ele>
        <time>2025-06-01T09:12:50.000Z</time>
      </trkpt>
      <trkpt lat="52.387417" lon="-1.5922">
        <ele>111.185036</ele>
        <time>2025-06-01T09:12:52.000Z</time>
      </trkpt>
      <trkpt lat="52.387088" lon="-1.591142">
        <ele>108.397148</ele>
        <time>2025-06-01T09:13:00.000Z</time>
      </trkpt>
      <trkpt lat="52.386889" lon="-1.590525">
        <ele>106.768035</ele>
        <time>2025-06-01T09:13:05.000Z</time>
      </trkpt>
      <trkpt lat="52.386745" lon="-1.589997">
        <ele>105.45304</ele>
        <time>2025-06-01T09:13:09.000Z</time>
      </trkpt>
      <trkpt lat="52.386491" lon="-1.589207">
        <ele>104.809897</ele>
        <time>2025-06-01T09:13:15.000Z</time>
      </trkpt>
      <trkpt lat="52.386291" lon="-1.588636">
        <ele>104.333521</ele>
        <time>2025-06-01T09:13:19.000Z</time>
      </trkpt>
      <trkpt lat="52.38626" lon="-1.588481">
        <ele>104.207249</ele>
        <time>2025-06-01T09:13:20.000Z</time>
      </trkpt>
      <trkpt lat="52.386143" lon="-1.587978">
        <ele>103.814868</ele>
        <time>2025-06-01T09:13:24.000Z</time>
      </trkpt>
      <trkpt lat="52.385712" lon="-1.584769">
        <ele>102.300519</ele>
        <time>2025-06-01T09:13:46.000Z</time>
      </trkpt>
      <trkpt lat="52.385291" lon="-1.58225">
        <ele>100.112018</ele>
        <time>2025-06-01T09:14:04.000Z</time>
      </trkpt>
      <trkpt lat="52.385104" lon="-1.581158">
        <ele>99.302869</ele>
        <time>2025-06-01T09:14:12.000Z</time>
      </trkpt>
      <trkpt lat="52.385073" lon="-1.580928">
        <ele>99.183327</ele>
        <time>2025-06-01T09:14:14.000Z</time>
      </trkpt>
      <trkpt lat="52.384887" lon="-1.579936">
        <ele>98.676965</ele>
        <time>2025-06-01T09:14:21.000Z</time>
      </trkpt>
      <trkpt lat="52.384824" lon="-1.579087">
        <ele>98.26054</ele>
        <time>2025-06-01T09:14:27.000Z</time>
      </trkpt>
      <trkpt lat="52.384764" lon="-1.578236">
        <ele>97.595325</ele>
        <time>2025-06-01T09:14:33.000Z</time>
      </trkpt>
      <trkpt lat="52.384727" lon="-1.577486">
        <ele>96.892715</ele>
        <time>2025-06-01T09:14:38.000Z</time>
      </trkpt>
      <trkpt lat="52.384713" lon="-1.57731">
        <ele>96.711103</ele>
        <time>2025-06-01T09:14:39.000Z</time>
      </trkpt>
      <trkpt lat="52.384619" lon="-1.575873">
        <ele>95.346274</ele>
        <time>2025-06-01T09:14:49.000Z</time>
      </trkpt>
      <trkpt lat="52.384526" lon="-1.574692">
        <ele>93.681337</ele>
        <time>2025-06-01T09:14:57.000Z</time>
      </trkpt>
      <trkpt lat="52.38449" lon="-1.574088">
        <ele>92.804991</ele>
        <time>2025-06-01T09:15:01.000Z</time>
      </trkpt>
      <trkpt lat="52.384389" lon="-1.572587">
        <ele>90.615234</ele>
        <time>2025-06-01T09:15:11.000Z</time>
      </trkpt>
      <trkpt lat="52.384314" lon="-1.57165">
        <ele>89.162671</ele>
        <time>2025-06-01T09:15:17.000Z</time>
      </trkpt>
      <trkpt lat="52.384265" lon="-1.570854">
        <ele>87.923934</ele>
        <time>2025-06-01T09:15:22.000Z</time>
      </trkpt>
      <trkpt lat="52.384253" lon="-1.570541">
        <ele>87.428481</ele>
        <time>2025-06-01T09:15:24.000Z</time>
      </trkpt>
      <trkpt lat="52.384334" lon="-1.569972">
        <ele>86.535113</ele>
        <time>2025-06-01T09:15:28.000Z</time>
      </trkpt>
      <trkpt lat="52.384747" lon="-1.568012">
        <ele>84.930458</ele>
        <time>2025-06-01T09:15:42.000Z</time>
      </trkpt>
      <trkpt lat="52.384795" lon="-1.56795">
        <ele>84.864438</ele>
        <time>2025-06-01T09:15:43.000Z</time>
      </trkpt>
      <trkpt lat="52.384864" lon="-1.567989">
        <ele>84.769247</ele>
        <time>2025-06-01T09:15:44.000Z</time>
      </trkpt>
      <trkpt lat="52.384913" lon="-1.567972">
        <ele>84.698646</ele>
        <time>2025-06-01T09:15:45.000Z</time>
      </trkpt>
      <trkpt lat="52.385034" lon="-1.568024">
        <ele>84.533475</ele>
        <time>2025-06-01T09:15:46.000Z</time>
      </trkpt>
      <trkpt lat="52.385174" lon="-1.568014">
        <ele>84.369886</ele>
        <time>2025-06-01T09:15:48.000Z</time>
      </trkpt>
      <trkpt lat="52.385333" lon="-1.567943">
        <ele>84.357858</ele>
        <time>2025-06-01T09:15:50.000Z</time>
      </trkpt>
      <trkpt lat="52.385651" lon="-1.567825">
        <ele>84.617852</ele>
        <time>2025-06-01T09:15:54.000Z</time>
      </trkpt>
      <trkpt lat="52.386108" lon="-1.567777">
        <ele>84.983101</ele>
        <time>2025-06-01T09:15:59.000Z</time>
      </trkpt>
      <trkpt lat="52.386367" lon="-1.567809">
        <ele>85.196386</ele>
        <time>2025-06-01T09:16:02.000Z</time>
      </trkpt>
      <trkpt lat="52.386621" lon="-1.567828">
        <ele>85.417012</ele>
        <time>2025-06-01T09:16:05.000Z</time>
      </trkpt>
      <trkpt lat="52.386951" lon="-1.567918">
        <ele>85.689771</ele>
        <time>2025-06-01T09:16:09.000Z</time>
      </trkpt>
      <trkpt lat="52.387131" lon="-1.56797">
        <ele>85.883502</ele>
        <time>2025-06-01T09:16:11.000Z</time>
      </trkpt>
      <trkpt lat="52.387458" lon="-1.568197">
        <ele>86.330541</ele>
        <time>2025-06-01T09:16:15.000Z</time>
      </trkpt>
      <trkpt lat="52.38768" lon="-1.56843">
        <ele>86.661588</ele>
        <time>2025-06-01T09:16:18.000Z</time>
      </trkpt>
      <trkpt lat="52.38787" lon="-1.568756">
        <ele>87.010221</ele>
        <time>2025-06-01T09:16:21.000Z</time>
      </trkpt>
      <trkpt lat="52.38811" lon="-1.569306">
        <ele>87.514695</ele>
        <time>2025-06-01T09:16:26.000Z</time>
      </trkpt>
      <trkpt lat="52.388183" lon="-1.569469">
        <ele>87.67989</ele>
        <time>2025-06-01T09:16:27.000Z</time>
      </trkpt>
      <trkpt lat="52.38831" lon="-1.569762">
        <ele>87.945597</ele>
        <time>2025-06-01T09:16:29.000Z</time>
      </trkpt>
      <trkpt lat="52.388389" lon="-1.570135">
        <ele>88.293111</ele>
        <time>2025-06-01T09:16:32.000Z</time>
      </trkpt>
      <trkpt lat="52.388402" lon="-1.570233">
        <ele>88.38821</ele>
        <time>2025-06-01T09:16:33.000Z</time>
      </trkpt>
      <trkpt lat="52.388448" lon="-1.57033">
        <ele>88.495468</ele>
        <time>2025-06-01T09:16:34.000Z</time>
      </trkpt>
      <trkpt lat="52.38852" lon="-1.570331">
        <ele>88.613199</ele>
        <time>2025-06-01T09:16:35.000Z</time>
      </trkpt>
      <trkpt lat="52.388597" lon="-1.570237">
        <ele>88.748632</ele>
        <time>2025-06-01T09:16:36.000Z</time>
      </trkpt>
      <trkpt lat="52.38885" lon="-1.570005">
        <ele>89.177041</ele>
        <time>2025-06-01T09:16:39.000Z</time>
      </trkpt>
      <trkpt lat="52.388932" lon="-1.569952">
        <ele>89.322566</ele>
        <time>2025-06-01T09:16:40.000Z</time>
      </trkpt>
      <trkpt lat="52.389346" lon="-1.569813">
        <ele>89.932552</ele>
        <time>2025-06-01T09:16:45.000Z</time>
      </trkpt>
      <trkpt lat="52.389444" lon="-1.569784">
        <ele>90.098306</ele>
        <time>2025-06-01T09:16:46.000Z</time>
      </trkpt>
      <trkpt lat="52.39031" lon="-1.569557">
        <ele>92.127887</ele>
        <time>2025-06-01T09:16:56.000Z</time>
      </trkpt>
      <trkpt lat="52.390887" lon="-1.569443">
        <ele>93.924495</ele>
        <time>2025-06-01T09:17:02.000Z</time>
      </trkpt>
      <trkpt lat="52.391305" lon="-1.569433">
        <ele>95.182801</ele>
        <time>2025-06-01T09:17:07.000Z</time>
      </trkpt>
      <trkpt lat="52.391806" lon="-1.569497">
        <ele>96.883426</ele>
        <time>2025-06-01T09:17:13.000Z</time>
      </trkpt>
      <trkpt lat="52.391987" lon="-1.569526">
        <ele>97.669577</ele>
        <time>2025-06-01T09:17:15.000Z</time>
      </trkpt>
      <trkpt lat="52.39215" lon="-1.569581">
        <ele>98.338491</ele>
        <time>2025-06-01T09:17:17.000Z</time>
      </trkpt>
      <trkpt lat="52.392228" lon="-1.569597">
        <ele>98.693636</ele>
        <time>2025-06-01T09:17:18.000Z</time>
      </trkpt>
      <trkpt lat="52.392332" lon="-1.569708">
        <ele>99.152706</ele>
        <time>2025-06-01T09:17:19.000Z</time>
      </trkpt>
      <trkpt lat="52.39244" lon="-1.56997">
        <ele>99.965452</ele>
        <time>2025-06-01T09:17:21.000Z</time>
      </trkpt>
      <trkpt lat="52.392469" lon="-1.570098">
        <ele>100.321253</ele>
        <time>2025-06-01T09:17:22.000Z</time>
      </trkpt>
      <trkpt lat="52.392488" lon="-1.570323">
        <ele>100.877083</ele>
        <time>2025-06-01T09:17:24.000Z</time>
      </trkpt>
      <trkpt lat="52.392633" lon="-1.571955">
        <ele>104.572593</ele>
        <time>2025-06-01T09:17:35.000Z</time>
      </trkpt>
      <trkpt lat="52.392663" lon="-1.572263">
        <ele>105.149324</ele>
        <time>2025-06-01T09:17:37.000Z</time>
      </trkpt>
      <trkpt lat="52.392686" lon="-1.572488">
        <ele>105.556761</ele>
        <time>2025-06-01T09:17:39.000Z</time>
      </trkpt>
      <trkpt lat="52.392721" lon="-1.572938">
        <ele>106.348481</ele>
        <time>2025-06-01T09:17:42.000Z</time>
      </trkpt>
      <trkpt lat="52.392769" lon="-1.573564">
        <ele>107.458545</ele>
        <time>2025-06-01T09:17:46.000Z</time>
      </trkpt>
      <trkpt lat="52.392863" lon="-1.57461">
        <ele>108.821252</ele>
        <time>2025-06-01T09:17:53.000Z</time>
      </trkpt>
      <trkpt lat="52.393022" lon="-1.576328">
        <ele>109.272352</ele>
        <time>2025-06-01T09:18:05.000Z</time>
      </trkpt>
      <trkpt lat="52.393108" lon="-1.577409">
        <ele>109.678628</ele>
        <time>2025-06-01T09:18:12.000Z</time>
      </trkpt>
      <trkpt lat="52.39326" lon="-1.579382">
        <ele>111.25052</ele>
        <time>2025-06-01T09:18:25.000Z</time>
      </trkpt>
      <trkpt lat="52.393284" lon="-1.579976">
        <ele>111.724312</ele>
        <time>2025-06-01T09:18:29.000Z</time>
      </trkpt>
      <trkpt lat="52.393224" lon="-1.582063">
        <ele>114.967325</ele>
        <time>2025-06-01T09:18:43.000Z</time>
      </trkpt>
      <trkpt lat="52.393205" lon="-1.582438">
        <ele>115.568656</ele>
        <time>2025-06-01T09:18:46.000Z</time>
      </trkpt>
      <trkpt lat="52.393121" lon="-1.585282">
        <ele>119.260916</ele>
        <time>2025-06-01T09:19:05.000Z</time>
      </trkpt>
      <trkpt lat="52.39311" lon="-1.58535">
        <ele>119.342585</ele>
        <time>2025-06-01T09:19:05.000Z</time>
      </trkpt>
      <trkpt lat="52.393028" lon="-1.586608">
        <ele>120.364226</ele>
        <time>2025-06-01T09:19:14.000Z</time>
      </trkpt>
      <trkpt lat="52.393008" lon="-1.586842">
        <ele>120.454349</ele>
        <time>2025-06-01T09:19:16.000Z</time>
      </trkpt>
      <trkpt lat="52.392996" lon="-1.587049">
        <ele>120.530819</ele>
        <time>2025-06-01T09:19:17.000Z</time>
      </trkpt>
      <trkpt lat="52.392905" lon="-1.587941">
        <ele>120.866586</ele>
        <time>2025-06-01T09:19:23.000Z</time>
      </trkpt>
      <trkpt lat="52.392784" lon="-1.589402">
        <ele>121.114144</ele>
        <time>2025-06-01T09:19:33.000Z</time>
      </trkpt>
      <trkpt lat="52.392783" lon="-1.589512">
        <ele>121.086772</ele>
        <time>2025-06-01T09:19:34.000Z</time>
      </trkpt>
      <trkpt lat="52.392778" lon="-1.589568">
        <ele>121.072392</ele>
        <time>2025-06-01T09:19:34.000Z</time>
      </trkpt>
      <trkpt lat="52.392764" lon="-1.589716">
        <ele>121.030132</ele>
        <time>2025-06-01T09:19:35.000Z</time>
      </trkpt>
      <trkpt lat="52.392648" lon="-1.590921">
        <ele>120.720768</ele>
        <time>2025-06-01T09:19:43.000Z</time>
      </trkpt>
      <trkpt lat="52.392625" lon="-1.591241">
        <ele>120.643303</ele>
        <time>2025-06-01T09:19:45.000Z</time>
      </trkpt>
      <trkpt lat="52.392605" lon="-1.591437">
        <ele>120.59212</ele>
        <time>2025-06-01T09:19:46.000Z</time>
      </trkpt>
      <trkpt lat="52.392594" lon="-1.591706">
        <ele>120.521931</ele>
        <time>2025-06-01T09:19:48.000Z</time>
      </trkpt>
      <trkpt lat="52.392547" lon="-1.592298">
        <ele>120.097618</ele>
        <time>2025-06-01T09:19:52.000Z</time>
      </trkpt>
      <trkpt lat="52.392544" lon="-1.592553">
        <ele>119.891951</ele>
        <time>2025-06-01T09:19:54.000Z</time>
      </trkpt>
      <trkpt lat="52.392548" lon="-1.592846">
        <ele>119.650099</ele>
        <time>2025-06-01T09:19:56.000Z</time>
      </trkpt>
      <trkpt lat="52.392547" lon="-1.592958">
        <ele>119.54793</ele>
        <time>2025-06-01T09:19:57.000Z</time>
      </trkpt>
      <trkpt lat="52.392732" lon="-1.59502">
        <ele>117.906632</ele>
        <time>2025-06-01T09:20:11.000Z</time>
      </trkpt>
      <trkpt lat="52.392767" lon="-1.595278">
        <ele>117.783923</ele>
        <time>2025-06-01T09:20:13.000Z</time>
      </trkpt>
      <trkpt lat="52.392933" lon="-1.597054">
        <ele>116.964068</ele>
        <time>2025-06-01T09:20:25.000Z</time>
      </trkpt>
      <trkpt lat="52.392722" lon="-1.597133">
        <ele>116.801848</ele>
        <time>2025-06-01T09:20:27.000Z</time>
      </trkpt>
      <trkpt lat="52.392036" lon="-1.59742">
        <ele>117.614077</ele>
        <time>2025-06-01T09:20:35.000Z</time>
      </trkpt>
      <trkpt lat="52.391665" lon="-1.597634">
        <ele>118.282484</ele>
        <time>2025-06-01T09:20:39.000Z</time>
      </trkpt>
      <trkpt lat="52.390955" lon="-1.59805">
        <ele>119.59464</ele>
        <time>2025-06-01T09:20:47.000Z</time>
      </trkpt>
      <trkpt lat="52.390536" lon="-1.598286">
        <ele>120.675818</ele>
        <time>2025-06-01T09:20:52.000Z</time>
      </trkpt>
      <trkpt lat="52.390508" lon="-1.5983">
        <ele>120.737227</ele>
        <time>2025-06-01T09:20:52.000Z</time>
      </trkpt>
      <trkpt lat="52.3904" lon="-1.59835">
        <ele>121.071247</ele>
        <time>2025-06-01T09:20:53.000Z</time>
      </trkpt>
      <trkpt lat="52.389661" lon="-1.59871">
        <ele>123.135719</ele>
        <time>2025-06-01T09:21:02.000Z</time>
      </trkpt>
      <trkpt lat="52.389568" lon="-1.598736">
        <ele>123.375319</ele>
        <time>2025-06-01T09:21:03.000Z</time>
      </trkpt>
      <trkpt lat="52.389271" lon="-1.598892">
        <ele>124.205547</ele>
        <time>2025-06-01T09:21:06.000Z</time>
      </trkpt>
      <trkpt lat="52.389068" lon="-1.598978">
        <ele>124.70829</ele>
        <time>2025-06-01T09:21:08.000Z</time>
      </trkpt>
      <trkpt lat="52.388933" lon="-1.599078">
        <ele>124.992706</ele>
        <time>2025-06-01T09:21:10.000Z</time>
      </trkpt>
      <trkpt lat="52.388766" lon="-1.599211">
        <ele>125.37012</ele>
        <time>2025-06-01T09:21:12.000Z</time>
      </trkpt>
      <trkpt lat="52.388513" lon="-1.599461">
        <ele>125.942954</ele>
        <time>2025-06-01T09:21:15.000Z</time>
      </trkpt>
      <trkpt lat="52.38809" lon="-1.599993">
        <ele>126.956034</ele>
        <time>2025-06-01T09:21:21.000Z</time>
      </trkpt>
      <trkpt lat="52.38778" lon="-1.600359">
        <ele>127.693203</ele>
        <time>2025-06-01T09:21:25.000Z</time>
      </trkpt>
      <trkpt lat="52.387778" lon="-1.600368">
        <ele>127.717839</ele>
        <time>2025-06-01T09:21:25.000Z</time>
      </trkpt>
      <trkpt lat="52.387374" lon="-1.600892">
        <ele>128.370719</ele>
        <time>2025-06-01T09:21:31.000Z</time>
      </trkpt>
      <trkpt lat="52.387094" lon="-1.601259">
        <ele>128.709058</ele>
        <time>2025-06-01T09:21:35.000Z</time>
      </trkpt>
      <trkpt lat="52.38631" lon="-1.602265">
        <ele>129.616376</ele>
        <time>2025-06-01T09:21:46.000Z</time>
      </trkpt>
      <trkpt lat="52.386201" lon="-1.602406">
        <ele>129.725324</ele>
        <time>2025-06-01T09:21:48.000Z</time>
      </trkpt>
      <trkpt lat="52.385742" lon="-1.60296">
        <ele>129.829875</ele>
        <time>2025-06-01T09:21:54.000Z</time>
      </trkpt>
      <trkpt lat="52.385458" lon="-1.60326">
        <ele>129.891684</ele>
        <time>2025-06-01T09:21:58.000Z</time>
      </trkpt>
      <trkpt lat="52.385445" lon="-1.603289">
        <ele>129.894693</ele>
        <time>2025-06-01T09:21:58.000Z</time>
      </trkpt>
      <trkpt lat="52.384729" lon="-1.603846">
        <ele>130.041062</ele>
        <time>2025-06-01T09:22:07.000Z</time>
      </trkpt>
      <trkpt lat="52.384628" lon="-1.603895">
        <ele>130.01489</ele>
        <time>2025-06-01T09:22:08.000Z</time>
      </trkpt>
      <trkpt lat="52.384612" lon="-1.603904">
        <ele>129.993742</ele>
        <time>2025-06-01T09:22:08.000Z</time>
      </trkpt>
      <trkpt lat="52.384556" lon="-1.603953">
        <ele>129.950504</ele>
        <time>2025-06-01T09:22:09.000Z</time>
      </trkpt>
      <trkpt lat="52.384457" lon="-1.60401">
        <ele>129.864961</ele>
        <time>2025-06-01T09:22:10.000Z</time>
      </trkpt>
      <trkpt lat="52.384342" lon="-1.604112">
        <ele>129.752854</ele>
        <time>2025-06-01T09:22:11.000Z</time>
      </trkpt>
      <trkpt lat="52.384308" lon="-1.604133">
        <ele>129.722901</ele>
        <time>2025-06-01T09:22:11.000Z</time>
      </trkpt>
      <trkpt lat="52.384189" lon="-1.604201">
        <ele>129.628967</ele>
        <time>2025-06-01T09:22:12.000Z</time>
      </trkpt>
      <trkpt lat="52.384045" lon="-1.604305">
        <ele>129.494986</ele>
        <time>2025-06-01T09:22:14.000Z</time>
      </trkpt>
      <trkpt lat="52.383871" lon="-1.604419">
        <ele>129.343782</ele>
        <time>2025-06-01T09:22:16.000Z</time>
      </trkpt>
      <trkpt lat="52.383764" lon="-1.604492">
        <ele>129.246678</ele>
        <time>2025-06-01T09:22:17.000Z</time>
      </trkpt>
      <trkpt lat="52.383657" lon="-1.604569">
        <ele>129.163197</ele>
        <time>2025-06-01T09:22:18.000Z</time>
      </trkpt>
      <trkpt lat="52.38353" lon="-1.604659">
        <ele>129.04831</ele>
        <time>2025-06-01T09:22:20.000Z</time>
      </trkpt>
      <trkpt lat="52.38339" lon="-1.604745">
        <ele>128.922926</ele>
        <time>2025-06-01T09:22:22.000Z</time>
      </trkpt>
      <trkpt lat="52.383333" lon="-1.604774">
        <ele>128.88344</ele>
        <time>2025-06-01T09:22:23.000Z</time>
      </trkpt>
      <trkpt lat="52.383187" lon="-1.604884">
        <ele>128.753775</ele>
        <time>2025-06-01T09:22:25.000Z</time>
      </trkpt>
      <trkpt lat="52.382993" lon="-1.605027">
        <ele>128.5962</ele>
        <time>2025-06-01T09:22:27.000Z</time>
      </trkpt>
      <trkpt lat="52.382902" lon="-1.60508">
        <ele>128.59351</ele>
        <time>2025-06-01T09:22:28.000Z</time>
      </trkpt>
      <trkpt lat="52.382742" lon="-1.60518">
        <ele>128.58931</ele>
        <time>2025-06-01T09:22:30.000Z</time>
      </trkpt>
      <trkpt lat="52.382716" lon="-1.605211">
        <ele>128.588326</ele>
        <time>2025-06-01T09:22:30.000Z</time>
      </trkpt>
      <trkpt lat="52.382522" lon="-1.605328">
        <ele>128.582841</ele>
        <time>2025-06-01T09:22:32.000Z</time>
      </trkpt>
      <trkpt lat="52.382419" lon="-1.605406">
        <ele>128.579787</ele>
        <time>2025-06-01T09:22:33.000Z</time>
      </trkpt>
      <trkpt lat="52.382234" lon="-1.605507">
        <ele>128.574658</ele>
        <time>2025-06-01T09:22:35.000Z</time>
      </trkpt>
      <trkpt lat="52.382193" lon="-1.605516">
        <ele>128.573588</ele>
        <time>2025-06-01T09:22:35.000Z</time>
      </trkpt>
      <trkpt lat="52.382167" lon="-1.605525">
        <ele>128.572842</ele>
        <time>2025-06-01T09:22:35.000Z</time>
      </trkpt>
      <trkpt lat="52.382048" lon="-1.605579">
        <ele>128.569618</ele>
        <time>2025-06-01T09:22:36.000Z</time>
      </trkpt>
      <trkpt lat="52.381853" lon="-1.605662">
        <ele>128.564542</ele>
        <time>2025-06-01T09:22:38.000Z</time>
      </trkpt>
      <trkpt lat="52.381794" lon="-1.605687">
        <ele>128.562815</ele>
        <time>2025-06-01T09:22:39.000Z</time>
      </trkpt>
      <trkpt lat="52.381768" lon="-1.605692">
        <ele>128.562189</ele>
        <time>2025-06-01T09:22:39.000Z</time>
      </trkpt>
      <trkpt lat="52.381692" lon="-1.605733">
        <ele>128.560191</ele>
        <time>2025-06-01T09:22:40.000Z</time>
      </trkpt>
      <trkpt lat="52.381565" lon="-1.605782">
        <ele>128.556535</ele>
        <time>2025-06-01T09:22:41.000Z</time>
      </trkpt>
      <trkpt lat="52.381429" lon="-1.605837">
        <ele>128.553091</ele>
        <time>2025-06-01T09:22:43.000Z</time>
      </trkpt>
      <trkpt lat="52.381399" lon="-1.605843">
        <ele>128.552056</ele>
        <time>2025-06-01T09:22:43.000Z</time>
      </trkpt>
      <trkpt lat="52.38113" lon="-1.60594">
        <ele>128.727881</ele>
        <time>2025-06-01T09:22:46.000Z</time>
      </trkpt>
      <trkpt lat="52.381067" lon="-1.605968">
        <ele>128.801747</ele>
        <time>2025-06-01T09:22:47.000Z</time>
      </trkpt>
      <trkpt lat="52.381048" lon="-1.605976">
        <ele>128.822903</ele>
        <time>2025-06-01T09:22:47.000Z</time>
      </trkpt>
      <trkpt lat="52.380998" lon="-1.605996">
        <ele>128.877077</ele>
        <time>2025-06-01T09:22:48.000Z</time>
      </trkpt>
      <trkpt lat="52.380812" lon="-1.606087">
        <ele>129.068646</ele>
        <time>2025-06-01T09:22:50.000Z</time>
      </trkpt>
      <trkpt lat="52.380755" lon="-1.606127">
        <ele>129.132685</ele>
        <time>2025-06-01T09:22:51.000Z</time>
      </trkpt>
      <trkpt lat="52.380654" lon="-1.606178">
        <ele>129.230519</ele>
        <time>2025-06-01T09:22:52.000Z</time>
      </trkpt>
      <trkpt lat="52.380628" lon="-1.606197">
        <ele>129.272885</ele>
        <time>2025-06-01T09:22:52.000Z</time>
      </trkpt>
      <trkpt lat="52.380588" lon="-1.606212">
        <ele>129.311623</ele>
        <time>2025-06-01T09:22:52.000Z</time>
      </trkpt>
      <trkpt lat="52.380577" lon="-1.606308">
        <ele>129.373829</ele>
        <time>2025-06-01T09:22:53.000Z</time>
      </trkpt>
      <trkpt lat="52.380464" lon="-1.606475">
        <ele>129.540311</ele>
        <time>2025-06-01T09:22:55.000Z</time>
      </trkpt>
      <trkpt lat="52.380253" lon="-1.606505">
        <ele>129.754858</ele>
        <time>2025-06-01T09:22:57.000Z</time>
      </trkpt>
      <trkpt lat="52.380102" lon="-1.60659">
        <ele>129.913971</ele>
        <time>2025-06-01T09:22:59.000Z</time>
      </trkpt>
      <trkpt lat="52.38003" lon="-1.606641">
        <ele>129.988928</ele>
        <time>2025-06-01T09:23:00.000Z</time>
      </trkpt>
      <trkpt lat="52.37993" lon="-1.606714">
        <ele>130.102161</ele>
        <time>2025-06-01T09:23:01.000Z</time>
      </trkpt>
      <trkpt lat="52.379834" lon="-1.606799">
        <ele>130.22313</ele>
        <time>2025-06-01T09:23:02.000Z</time>
      </trkpt>
      <trkpt lat="52.379706" lon="-1.606867">
        <ele>130.359332</ele>
        <time>2025-06-01T09:23:03.000Z</time>
      </trkpt>
      <trkpt lat="52.379583" lon="-1.606941">
        <ele>130.349356</ele>
        <time>2025-06-01T09:23:04.000Z</time>
      </trkpt>
      <trkpt lat="52.379455" lon="-1.607017">
        <ele>130.288984</ele>
        <time>2025-06-01T09:23:06.000Z</time>
      </trkpt>
      <trkpt lat="52.379377" lon="-1.607046">
        <ele>130.251589</ele>
        <time>2025-06-01T09:23:07.000Z</time>
      </trkpt>
      <trkpt lat="52.379227" lon="-1.607133">
        <ele>130.180828</ele>
        <time>2025-06-01T09:23:09.000Z</time>
      </trkpt>
      <trkpt lat="52.379092" lon="-1.60722">
        <ele>130.108982</ele>
        <time>2025-06-01T09:23:11.000Z</time>
      </trkpt>
      <trkpt lat="52.379049" lon="-1.607229">
        <ele>130.088095</ele>
        <time>2025-06-01T09:23:11.000Z</time>
      </trkpt>
      <trkpt lat="52.378964" lon="-1.607285">
        <ele>130.044232</ele>
        <time>2025-06-01T09:23:12.000Z</time>
      </trkpt>
      <trkpt lat="52.378463" lon="-1.607524">
        <ele>129.802575</ele>
        <time>2025-06-01T09:23:18.000Z</time>
      </trkpt>
      <trkpt lat="52.378339" lon="-1.607531">
        <ele>129.737693</ele>
        <time>2025-06-01T09:23:19.000Z</time>
      </trkpt>
      <trkpt lat="52.3783" lon="-1.607327">
        <ele>129.673885</ele>
        <time>2025-06-01T09:23:20.000Z</time>
      </trkpt>
      <trkpt lat="52.378188" lon="-1.60707">
        <ele>129.58711</ele>
        <time>2025-06-01T09:23:22.000Z</time>
      </trkpt>
      <trkpt lat="52.377611" lon="-1.60605">
        <ele>128.802823</ele>
        <time>2025-06-01T09:23:31.000Z</time>
      </trkpt>
      <trkpt lat="52.377505" lon="-1.605882">
        <ele>128.65321</ele>
        <time>2025-06-01T09:23:33.000Z</time>
      </trkpt>
      <trkpt lat="52.377083" lon="-1.605135">
        <ele>128.049725</ele>
        <time>2025-06-01T09:23:40.000Z</time>
      </trkpt>
      <trkpt lat="52.376763" lon="-1.604278">
        <ele>127.119321</ele>
        <time>2025-06-01T09:23:47.000Z</time>
      </trkpt>
      <trkpt lat="52.376551" lon="-1.603789">
        <ele>126.43862</ele>
        <time>2025-06-01T09:23:51.000Z</time>
      </trkpt>
      <trkpt lat="52.37622" lon="-1.603208">
        <ele>125.547672</ele>
        <time>2025-06-01T09:23:56.000Z</time>
      </trkpt>
      <trkpt lat="52.375912" lon="-1.602703">
        <ele>124.705508</ele>
        <time>2025-06-01T09:24:01.000Z</time>
      </trkpt>
      <trkpt lat="52.37524" lon="-1.601859">
        <ele>121.585932</ele>
        <time>2025-06-01T09:24:10.000Z</time>
      </trkpt>
      <trkpt lat="52.375032" lon="-1.601504">
        <ele>120.339457</ele>
        <time>2025-06-01T09:24:13.000Z</time>
      </trkpt>
      <trkpt lat="52.374821" lon="-1.60096">
        <ele>118.730981</ele>
        <time>2025-06-01T09:24:17.000Z</time>
      </trkpt>
      <trkpt lat="52.374693" lon="-1.600768">
        <ele>118.038926</ele>
        <time>2025-06-01T09:24:19.000Z</time>
      </trkpt>
      <trkpt lat="52.374619" lon="-1.600689">
        <ele>117.664753</ele>
        <time>2025-06-01T09:24:20.000Z</time>
      </trkpt>
      <trkpt lat="52.373902" lon="-1.600323">
        <ele>114.965962</ele>
        <time>2025-06-01T09:24:28.000Z</time>
      </trkpt>
      <trkpt lat="52.373725" lon="-1.600081">
        <ele>114.132375</ele>
        <time>2025-06-01T09:24:31.000Z</time>
      </trkpt>
      <trkpt lat="52.373468" lon="-1.599683">
        <ele>112.912559</ele>
        <time>2025-06-01T09:24:35.000Z</time>
      </trkpt>
      <trkpt lat="52.37322" lon="-1.599468">
        <ele>111.92457</ele>
        <time>2025-06-01T09:24:38.000Z</time>
      </trkpt>
      <trkpt lat="52.372673" lon="-1.599296">
        <ele>110.372196</ele>
        <time>2025-06-01T09:24:44.000Z</time>
      </trkpt>
      <trkpt lat="52.371797" lon="-1.598877">
        <ele>108.961689</ele>
        <time>2025-06-01T09:24:54.000Z</time>
      </trkpt>
      <trkpt lat="52.371107" lon="-1.598699">
        <ele>107.935554</ele>
        <time>2025-06-01T09:25:02.000Z</time>
      </trkpt>
      <trkpt lat="52.370946" lon="-1.598628">
        <ele>107.831969</ele>
        <time>2025-06-01T09:25:04.000Z</time>
      </trkpt>
      <trkpt lat="52.370783" lon="-1.598336">
        <ele>107.683597</ele>
        <time>2025-06-01T09:25:07.000Z</time>
      </trkpt>
      <trkpt lat="52.370094" lon="-1.59665">
        <ele>106.905889</ele>
        <time>2025-06-01T09:25:21.000Z</time>
      </trkpt>
      <trkpt lat="52.3699" lon="-1.596229">
        <ele>106.546147</ele>
        <time>2025-06-01T09:25:25.000Z</time>
      </trkpt>
      <trkpt lat="52.369586" lon="-1.595513">
        <ele>105.765589</ele>
        <time>2025-06-01T09:25:31.000Z</time>
      </trkpt>
      <trkpt lat="52.369435" lon="-1.595321">
        <ele>105.50934</ele>
        <time>2025-06-01T09:25:33.000Z</time>
      </trkpt>
      <trkpt lat="52.369249" lon="-1.595259">
        <ele>105.233707</ele>
        <time>2025-06-01T09:25:35.000Z</time>
      </trkpt>
      <trkpt lat="52.368121" lon="-1.595236">
        <ele>103.331202</ele>
        <time>2025-06-01T09:25:48.000Z</time>
      </trkpt>
      <trkpt lat="52.365484" lon="-1.595128">
        <ele>97.720654</ele>
        <time>2025-06-01T09:26:17.000Z</time>
      </trkpt>
      <trkpt lat="52.365005" lon="-1.595207">
        <ele>96.657396</ele>
        <time>2025-06-01T09:26:22.000Z</time>
      </trkpt>
      <trkpt lat="52.363656" lon="-1.595599">
        <ele>93.440365</ele>
        <time>2025-06-01T09:26:37.000Z</time>
      </trkpt>
      <trkpt lat="52.360399" lon="-1.596478">
        <ele>86.447421</ele>
        <time>2025-06-01T09:27:14.000Z</time>
      </trkpt>
      <trkpt lat="52.360201" lon="-1.596077">
        <ele>85.890945</ele>
        <time>2025-06-01T09:27:18.000Z</time>
      </trkpt>
      <trkpt lat="52.359926" lon="-1.595773">
        <ele>85.306845</ele>
        <time>2025-06-01T09:27:22.000Z</time>
      </trkpt>
      <trkpt lat="52.358806" lon="-1.594717">
        <ele>84.470483</ele>
        <time>2025-06-01T09:27:36.000Z</time>
      </trkpt>
      <trkpt lat="52.35805" lon="-1.594156">
        <ele>84.286234</ele>
        <time>2025-06-01T09:27:45.000Z</time>
      </trkpt>
      <trkpt lat="52.357425" lon="-1.593799">
        <ele>84.719889</ele>
        <time>2025-06-01T09:27:52.000Z</time>
      </trkpt>
      <trkpt lat="52.356892" lon="-1.593527">
        <ele>85.098275</ele>
        <time>2025-06-01T09:27:58.000Z</time>
      </trkpt>
      <trkpt lat="52.356625" lon="-1.593429">
        <ele>85.281373</ele>
        <time>2025-06-01T09:28:01.000Z</time>
      </trkpt>
      <trkpt lat="52.356375" lon="-1.592046">
        <ele>86.917552</ele>
        <time>2025-06-01T09:28:11.000Z</time>
      </trkpt>
      <trkpt lat="52.356266" lon="-1.591449">
        <ele>87.668388</ele>
        <time>2025-06-01T09:28:15.000Z</time>
      </trkpt>
      <trkpt lat="52.356125" lon="-1.590575">
        <ele>88.757047</ele>
        <time>2025-06-01T09:28:21.000Z</time>
      </trkpt>
      <trkpt lat="52.355555" lon="-1.587561">
        <ele>90.460319</ele>
        <time>2025-06-01T09:28:42.000Z</time>
      </trkpt>
      <trkpt lat="52.354964" lon="-1.58426">
        <ele>90.080779</ele>
        <time>2025-06-01T09:29:05.000Z</time>
      </trkpt>
      <trkpt lat="52.3549" lon="-1.583849">
        <ele>90.127304</ele>
        <time>2025-06-01T09:29:08.000Z</time>
      </trkpt>
      <trkpt lat="52.354856" lon="-1.583709">
        <ele>90.14616</ele>
        <time>2025-06-01T09:29:09.000Z</time>
      </trkpt>
      <trkpt lat="52.354775" lon="-1.583592">
        <ele>90.166383</ele>
        <time>2025-06-01T09:29:10.000Z</time>
      </trkpt>
      <trkpt lat="52.354176" lon="-1.583464">
        <ele>90.274553</ele>
        <time>2025-06-01T09:29:17.000Z</time>
      </trkpt>
      <trkpt lat="52.354094" lon="-1.583332">
        <ele>90.296043</ele>
        <time>2025-06-01T09:29:18.000Z</time>
      </trkpt>
      <trkpt lat="52.354087" lon="-1.583207">
        <ele>90.308389</ele>
        <time>2025-06-01T09:29:19.000Z</time>
      </trkpt>
      <trkpt lat="52.354112" lon="-1.583032">
        <ele>90.329981</ele>
        <time>2025-06-01T09:29:20.000Z</time>
      </trkpt>
      <trkpt lat="52.354384" lon="-1.582292">
        <ele>90.695683</ele>
        <time>2025-06-01T09:29:26.000Z</time>
      </trkpt>
      <trkpt lat="52.354611" lon="-1.581345">
        <ele>91.152596</ele>
        <time>2025-06-01T09:29:33.000Z</time>
      </trkpt>
      <trkpt lat="52.354636" lon="-1.581124">
        <ele>91.261926</ele>
        <time>2025-06-01T09:29:35.000Z</time>
      </trkpt>
      <trkpt lat="52.354658" lon="-1.580925">
        <ele>91.345404</ele>
        <time>2025-06-01T09:29:36.000Z</time>
      </trkpt>
      <trkpt lat="52.354732" lon="-1.5804">
        <ele>91.588967</ele>
        <time>2025-06-01T09:29:40.000Z</time>
      </trkpt>
      <trkpt lat="52.354876" lon="-1.579582">
        <ele>91.882864</ele>
        <time>2025-06-01T09:29:46.000Z</time>
      </trkpt>
      <trkpt lat="52.355111" lon="-1.578354">
        <ele>92.292398</ele>
        <time>2025-06-01T09:29:55.000Z</time>
      </trkpt>
      <trkpt lat="52.355158" lon="-1.578072">
        <ele>92.385947</ele>
        <time>2025-06-01T09:29:57.000Z</time>
      </trkpt>
      <trkpt lat="52.355144" lon="-1.577949">
        <ele>92.423213</ele>
        <time>2025-06-01T09:29:58.000Z</time>
      </trkpt>
      <trkpt lat="52.355104" lon="-1.577833">
        <ele>92.466529</ele>
        <time>2025-06-01T09:29:59.000Z</time>
      </trkpt>
      <trkpt lat="52.354986" lon="-1.577581">
        <ele>92.563345</ele>
        <time>2025-06-01T09:30:01.000Z</time>
      </trkpt>
      <trkpt lat="52.354528" lon="-1.57676">
        <ele>92.93895</ele>
        <time>2025-06-01T09:30:09.000Z</time>
      </trkpt>
      <trkpt lat="52.353993" lon="-1.575645">
        <ele>93.422149</ele>
        <time>2025-06-01T09:30:19.000Z</time>
      </trkpt>
      <trkpt lat="52.353886" lon="-1.575513">
        <ele>93.496385</ele>
        <time>2025-06-01T09:30:20.000Z</time>
      </trkpt>
      <trkpt lat="52.35395" lon="-1.575337">
        <ele>93.568224</ele>
        <time>2025-06-01T09:30:21.000Z</time>
      </trkpt>
      <trkpt lat="52.354102" lon="-1.574907">
        <ele>93.826264</ele>
        <time>2025-06-01T09:30:24.000Z</time>
      </trkpt>
      <trkpt lat="52.35422" lon="-1.57497">
        <ele>93.939759</ele>
        <time>2025-06-01T09:30:25.000Z</time>
      </trkpt>
      <trkpt lat="52.354299" lon="-1.574985">
        <ele>94.027229</ele>
        <time>2025-06-01T09:30:26.000Z</time>
      </trkpt>
      <trkpt lat="52.356164" lon="-1.573624">
        <ele>95.232377</ele>
        <time>2025-06-01T09:30:49.000Z</time>
      </trkpt>
      <trkpt lat="52.357241" lon="-1.572902">
        <ele>95.040345</ele>
        <time>2025-06-01T09:31:02.000Z</time>
      </trkpt>
      <trkpt lat="52.357815" lon="-1.572518">
        <ele>94.009517</ele>
        <time>2025-06-01T09:31:09.000Z</time>
      </trkpt>
      <trkpt lat="52.358014" lon="-1.572531">
        <ele>93.691211</ele>
        <time>2025-06-01T09:31:11.000Z</time>
      </trkpt>
      <trkpt lat="52.359189" lon="-1.573037">
        <ele>92.102574</ele>
        <time>2025-06-01T09:31:25.000Z</time>
      </trkpt>
      <trkpt lat="52.35927" lon="-1.573126">
        <ele>92.079289</ele>
        <time>2025-06-01T09:31:26.000Z</time>
      </trkpt>
      <trkpt lat="52.359404" lon="-1.573553">
        <ele>92.012598</ele>
        <time>2025-06-01T09:31:29.000Z</time>
      </trkpt>
      <trkpt lat="52.359575" lon="-1.575032">
        <ele>91.802572</ele>
        <time>2025-06-01T09:31:39.000Z</time>
      </trkpt>
      <trkpt lat="52.359686" lon="-1.575938">
        <ele>92.318725</ele>
        <time>2025-06-01T09:31:45.000Z</time>
      </trkpt>
      <trkpt lat="52.359827" lon="-1.576393">
        <ele>92.804985</ele>
        <time>2025-06-01T09:31:48.000Z</time>
      </trkpt>
      <trkpt lat="52.360758" lon="-1.57872">
        <ele>94.940237</ele>
        <time>2025-06-01T09:32:07.000Z</time>
      </trkpt>
      <trkpt lat="52.36103" lon="-1.579064">
        <ele>95.156298</ele>
        <time>2025-06-01T09:32:11.000Z</time>
      </trkpt>
      <trkpt lat="52.361106" lon="-1.579097">
        <ele>95.219064</ele>
        <time>2025-06-01T09:32:12.000Z</time>
      </trkpt>
      <trkpt lat="52.36294" lon="-1.578727">
        <ele>94.52542</ele>
        <time>2025-06-01T09:32:33.000Z</time>
      </trkpt>
      <trkpt lat="52.363166" lon="-1.578762">
        <ele>94.281835</ele>
        <time>2025-06-01T09:32:36.000Z</time>
      </trkpt>
      <trkpt lat="52.363603" lon="-1.578819">
        <ele>93.764354</ele>
        <time>2025-06-01T09:32:41.000Z</time>
      </trkpt>
      <trkpt lat="52.363977" lon="-1.578809">
        <ele>93.123296</ele>
        <time>2025-06-01T09:32:45.000Z</time>
      </trkpt>
      <trkpt lat="52.365222" lon="-1.578958">
        <ele>90.696656</ele>
        <time>2025-06-01T09:32:59.000Z</time>
      </trkpt>
      <trkpt lat="52.365388" lon="-1.578915">
        <ele>90.364863</ele>
        <time>2025-06-01T09:33:01.000Z</time>
      </trkpt>
      <trkpt lat="52.365605" lon="-1.578824">
        <ele>90.202757</ele>
        <time>2025-06-01T09:33:03.000Z</time>
      </trkpt>
      <trkpt lat="52.365892" lon="-1.578567">
        <ele>90.266313</ele>
        <time>2025-06-01T09:33:07.000Z</time>
      </trkpt>
      <trkpt lat="52.366079" lon="-1.578202">
        <ele>90.326419</ele>
        <time>2025-06-01T09:33:10.000Z</time>
      </trkpt>
      <trkpt lat="52.366329" lon="-1.57792">
        <ele>90.384749</ele>
        <time>2025-06-01T09:33:13.000Z</time>
      </trkpt>
      <trkpt lat="52.366535" lon="-1.577767">
        <ele>90.428774</ele>
        <time>2025-06-01T09:33:16.000Z</time>
      </trkpt>
      <trkpt lat="52.366677" lon="-1.577705">
        <ele>90.459018</ele>
        <time>2025-06-01T09:33:18.000Z</time>
      </trkpt>
      <trkpt lat="52.366839" lon="-1.5777">
        <ele>90.491539</ele>
        <time>2025-06-01T09:33:20.000Z</time>
      </trkpt>
      <trkpt lat="52.367242" lon="-1.57787">
        <ele>91.072835</ele>
        <time>2025-06-01T09:33:25.000Z</time>
      </trkpt>
      <trkpt lat="52.367683" lon="-1.577962">
        <ele>92.225394</ele>
        <time>2025-06-01T09:33:30.000Z</time>
      </trkpt>
      <trkpt lat="52.368002" lon="-1.577976">
        <ele>93.076127</ele>
        <time>2025-06-01T09:33:34.000Z</time>
      </trkpt>
      <trkpt lat="52.368532" lon="-1.577824">
        <ele>94.478791</ele>
        <time>2025-06-01T09:33:40.000Z</time>
      </trkpt>
      <trkpt lat="52.368784" lon="-1.577845">
        <ele>95.161802</ele>
        <time>2025-06-01T09:33:43.000Z</time>
      </trkpt>
      <trkpt lat="52.369621" lon="-1.57826">
        <ele>95.587734</ele>
        <time>2025-06-01T09:33:53.000Z</time>
      </trkpt>
      <trkpt lat="52.369841" lon="-1.578399">
        <ele>95.676191</ele>
        <time>2025-06-01T09:33:56.000Z</time>
      </trkpt>
      <trkpt lat="52.370006" lon="-1.578577">
        <ele>95.751529</ele>
        <time>2025-06-01T09:33:58.000Z</time>
      </trkpt>
      <trkpt lat="52.370265" lon="-1.578972">
        <ele>95.881025</ele>
        <time>2025-06-01T09:34:02.000Z</time>
      </trkpt>
      <trkpt lat="52.370489" lon="-1.579374">
        <ele>95.437441</ele>
        <time>2025-06-01T09:34:06.000Z</time>
      </trkpt>
      <trkpt lat="52.370722" lon="-1.57961">
        <ele>94.496586</ele>
        <time>2025-06-01T09:34:09.000Z</time>
      </trkpt>
      <trkpt lat="52.37086" lon="-1.579707">
        <ele>93.972806</ele>
        <time>2025-06-01T09:34:11.000Z</time>
      </trkpt>
      <trkpt lat="52.371998" lon="-1.580032">
        <ele>90.048729</ele>
        <time>2025-06-01T09:34:24.000Z</time>
      </trkpt>
      <trkpt lat="52.37258" lon="-1.580161">
        <ele>88.686135</ele>
        <time>2025-06-01T09:34:31.000Z</time>
      </trkpt>
      <trkpt lat="52.373168" lon="-1.580355">
        <ele>87.440355</ele>
        <time>2025-06-01T09:34:38.000Z</time>
      </trkpt>
      <trkpt lat="52.373308" lon="-1.580445">
        <ele>87.130932</ele>
        <time>2025-06-01T09:34:40.000Z</time>
      </trkpt>
      <trkpt lat="52.373338" lon="-1.580478">
        <ele>87.026763</ele>
        <time>2025-06-01T09:34:40.000Z</time>
      </trkpt>
      <trkpt lat="52.373392" lon="-1.580537">
        <ele>86.89035</ele>
        <time>2025-06-01T09:34:41.000Z</time>
      </trkpt>
      <trkpt lat="52.373529" lon="-1.580752">
        <ele>86.474581</ele>
        <time>2025-06-01T09:34:43.000Z</time>
      </trkpt>
      <trkpt lat="52.373818" lon="-1.581392">
        <ele>86.275578</ele>
        <time>2025-06-01T09:34:48.000Z</time>
      </trkpt>
      <trkpt lat="52.374051" lon="-1.58175">
        <ele>86.639765</ele>
        <time>2025-06-01T09:34:52.000Z</time>
      </trkpt>
      <trkpt lat="52.374503" lon="-1.582305">
        <ele>87.293652</ele>
        <time>2025-06-01T09:34:58.000Z</time>
      </trkpt>
      <trkpt lat="52.375063" lon="-1.583197">
        <ele>88.309715</ele>
        <time>2025-06-01T09:35:07.000Z</time>
      </trkpt>
      <trkpt lat="52.375391" lon="-1.583654">
        <ele>89.186425</ele>
        <time>2025-06-01T09:35:12.000Z</time>
      </trkpt>
      <trkpt lat="52.375709" lon="-1.583953">
        <ele>89.921249</ele>
        <time>2025-06-01T09:35:16.000Z</time>
      </trkpt>
      <trkpt lat="52.375888" lon="-1.584014">
        <ele>90.285642</ele>
        <time>2025-06-01T09:35:18.000Z</time>
      </trkpt>
      <trkpt lat="52.376559" lon="-1.584174">
        <ele>91.662027</ele>
        <time>2025-06-01T09:35:26.000Z</time>
      </trkpt>
      <trkpt lat="52.376806" lon="-1.584341">
        <ele>92.014663</ele>
        <time>2025-06-01T09:35:29.000Z</time>
      </trkpt>
      <trkpt lat="52.377049" lon="-1.584606">
        <ele>92.354397</ele>
        <time>2025-06-01T09:35:32.000Z</time>
      </trkpt>
      <trkpt lat="52.378656" lon="-1.587525">
        <ele>95.061692</ele>
        <time>2025-06-01T09:35:59.000Z</time>
      </trkpt>
      <trkpt lat="52.378982" lon="-1.588266">
        <ele>95.666536</ele>
        <time>2025-06-01T09:36:05.000Z</time>
      </trkpt>
      <trkpt lat="52.379405" lon="-1.589114">
        <ele>96.117748</ele>
        <time>2025-06-01T09:36:12.000Z</time>
      </trkpt>
      <trkpt lat="52.379444" lon="-1.589184">
        <ele>96.153443</ele>
        <time>2025-06-01T09:36:13.000Z</time>
      </trkpt>
      <trkpt lat="52.379826" lon="-1.590313">
        <ele>96.630093</ele>
        <time>2025-06-01T09:36:22.000Z</time>
      </trkpt>
      <trkpt lat="52.380008" lon="-1.591024">
        <ele>96.864203</ele>
        <time>2025-06-01T09:36:27.000Z</time>
      </trkpt>
      <trkpt lat="52.380091" lon="-1.591181">
        <ele>96.860087</ele>
        <time>2025-06-01T09:36:28.000Z</time>
      </trkpt>
      <trkpt lat="52.380129" lon="-1.591245">
        <ele>96.857484</ele>
        <time>2025-06-01T09:36:29.000Z</time>
      </trkpt>
      <trkpt lat="52.380178" lon="-1.5913">
        <ele>96.855383</ele>
        <time>2025-06-01T09:36:30.000Z</time>
      </trkpt>
      <trkpt lat="52.380287" lon="-1.591325">
        <ele>96.851886</ele>
        <time>2025-06-01T09:36:31.000Z</time>
      </trkpt>
      <trkpt lat="52.380486" lon="-1.591255">
        <ele>96.843924</ele>
        <time>2025-06-01T09:36:33.000Z</time>
      </trkpt>
      <trkpt lat="52.380856" lon="-1.590991">
        <ele>96.829584</ele>
        <time>2025-06-01T09:36:37.000Z</time>
      </trkpt>
      <trkpt lat="52.381186" lon="-1.590782">
        <ele>96.816474</ele>
        <time>2025-06-01T09:36:41.000Z</time>
      </trkpt>
      <trkpt lat="52.381691" lon="-1.590393">
        <ele>96.89995</ele>
        <time>2025-06-01T09:36:47.000Z</time>
      </trkpt>
      <trkpt lat="52.382106" lon="-1.590242">
        <ele>97.19119</ele>
        <time>2025-06-01T09:36:52.000Z</time>
      </trkpt>
      <trkpt lat="52.3829" lon="-1.590017">
        <ele>97.746786</ele>
        <time>2025-06-01T09:37:01.000Z</time>
      </trkpt>
      <trkpt lat="52.38328" lon="-1.589938">
        <ele>98.008771</ele>
        <time>2025-06-01T09:37:05.000Z</time>
      </trkpt>
      <trkpt lat="52.386482" lon="-1.589206">
        <ele>102.140124</ele>
        <time>2025-06-01T09:37:41.000Z</time>
      </trkpt>
      <trkpt lat="52.386298" lon="-1.588647">
        <ele>102.630818</ele>
        <time>2025-06-01T09:37:45.000Z</time>
      </trkpt>
      <trkpt lat="52.386253" lon="-1.58849">
        <ele>102.642569</ele>
        <time>2025-06-01T09:37:46.000Z</time>
      </trkpt>
      <trkpt lat="52.386139" lon="-1.587974">
        <ele>102.679106</ele>
        <time>2025-06-01T09:37:50.000Z</time>
      </trkpt>
      <trkpt lat="52.385713" lon="-1.584768">
        <ele>102.076519</ele>
        <time>2025-06-01T09:38:12.000Z</time>
      </trkpt>
      <trkpt lat="52.385307" lon="-1.582241">
        <ele>100.216529</ele>
        <time>2025-06-01T09:38:30.000Z</time>
      </trkpt>
      <trkpt lat="52.385105" lon="-1.581158">
        <ele>99.454918</ele>
        <time>2025-06-01T09:38:38.000Z</time>
      </trkpt>
      <trkpt lat="52.385061" lon="-1.580932">
        <ele>99.288938</ele>
        <time>2025-06-01T09:38:40.000Z</time>
      </trkpt>
      <trkpt lat="52.384892" lon="-1.579923">
        <ele>98.596279</ele>
        <time>2025-06-01T09:38:47.000Z</time>
      </trkpt>
      <trkpt lat="52.38482" lon="-1.579079">
        <ele>98.065911</ele>
        <time>2025-06-01T09:38:53.000Z</time>
      </trkpt>
      <trkpt lat="52.38477" lon="-1.578233">
        <ele>97.534174</ele>
        <time>2025-06-01T09:38:59.000Z</time>
      </trkpt>
      <trkpt lat="52.384717" lon="-1.577501">
        <ele>97.075192</ele>
        <time>2025-06-01T09:39:04.000Z</time>
      </trkpt>
      <trkpt lat="52.384706" lon="-1.577303">
        <ele>96.956548</ele>
        <time>2025-06-01T09:39:05.000Z</time>
      </trkpt>
      <trkpt lat="52.384613" lon="-1.575884">
        <ele>95.205079</ele>
        <time>2025-06-01T09:39:15.000Z</time>
      </trkpt>
      <trkpt lat="52.384523" lon="-1.574703">
        <ele>93.697628</ele>
        <time>2025-06-01T09:39:23.000Z</time>
      </trkpt>
      <trkpt lat="52.384494" lon="-1.574095">
        <ele>92.866829</ele>
        <time>2025-06-01T09:39:27.000Z</time>
      </trkpt>
      <trkpt lat="52.384395" lon="-1.572592">
        <ele>90.528474</ele>
        <time>2025-06-01T09:39:37.000Z</time>
      </trkpt>
      <trkpt lat="52.384315" lon="-1.571649">
        <ele>89.075929</ele>
        <time>2025-06-01T09:39:43.000Z</time>
      </trkpt>
      <trkpt lat="52.384249" lon="-1.570861">
        <ele>87.972618</ele>
        <time>2025-06-01T09:39:48.000Z</time>
      </trkpt>
      <trkpt lat="52.384265" lon="-1.570541">
        <ele>87.568785</ele>
        <time>2025-06-01T09:39:50.000Z</time>
      </trkpt>
      <trkpt lat="52.384326" lon="-1.569969">
        <ele>86.830125</ele>
        <time>2025-06-01T09:39:54.000Z</time>
      </trkpt>
      <trkpt lat="52.384747" lon="-1.568002">
        <ele>84.82965</ele>
        <time>2025-06-01T09:40:08.000Z</time>
      </trkpt>
      <trkpt lat="52.384779" lon="-1.567952">
        <ele>84.826099</ele>
        <time>2025-06-01T09:40:08.000Z</time>
      </trkpt>
      <trkpt lat="52.38485" lon="-1.567998">
        <ele>84.820954</ele>
        <time>2025-06-01T09:40:09.000Z</time>
      </trkpt>
      <trkpt lat="52.38492" lon="-1.567981">
        <ele>84.817154</ele>
        <time>2025-06-01T09:40:10.000Z</time>
      </trkpt>
      <trkpt lat="52.385036" lon="-1.568017">
        <ele>84.808229</ele>
        <time>2025-06-01T09:40:11.000Z</time>
      </trkpt>
      <trkpt lat="52.385169" lon="-1.568002">
        <ele>84.799418</ele>
        <time>2025-06-01T09:40:12.000Z</time>
      </trkpt>
      <trkpt lat="52.385343" lon="-1.567943">
        <ele>84.787274</ele>
        <time>2025-06-01T09:40:14.000Z</time>
      </trkpt>
      <trkpt lat="52.385655" lon="-1.567814">
        <ele>84.765505</ele>
        <time>2025-06-01T09:40:18.000Z</time>
      </trkpt>
      <trkpt lat="52.386106" lon="-1.567766">
        <ele>84.734951</ele>
        <time>2025-06-01T09:40:23.000Z</time>
      </trkpt>
      <trkpt lat="52.386355" lon="-1.567807">
        <ele>84.938593</ele>
        <time>2025-06-01T09:40:26.000Z</time>
      </trkpt>
      <trkpt lat="52.386622" lon="-1.567833">
        <ele>85.286203</ele>
        <time>2025-06-01T09:40:29.000Z</time>
      </trkpt>
      <trkpt lat="52.386964" lon="-1.567925">
        <ele>85.715987</ele>
        <time>2025-06-01T09:40:33.000Z</time>
      </trkpt>
      <trkpt lat="52.387125" lon="-1.567969">
        <ele>85.942731</ele>
        <time>2025-06-01T09:40:35.000Z</time>
      </trkpt>
      <trkpt lat="52.387471" lon="-1.56818">
        <ele>86.401785</ele>
        <time>2025-06-01T09:40:39.000Z</time>
      </trkpt>
      <trkpt lat="52.387679" lon="-1.568437">
        <ele>86.741732</ele>
        <time>2025-06-01T09:40:42.000Z</time>
      </trkpt>
      <trkpt lat="52.387875" lon="-1.568757">
        <ele>87.094502</ele>
        <time>2025-06-01T09:40:45.000Z</time>
      </trkpt>
      <trkpt lat="52.388118" lon="-1.569291">
        <ele>87.568193</ele>
        <time>2025-06-01T09:40:50.000Z</time>
      </trkpt>
      <trkpt lat="52.388185" lon="-1.569473">
        <ele>87.723298</ele>
        <time>2025-06-01T09:40:51.000Z</time>
      </trkpt>
      <trkpt lat="52.388306" lon="-1.569759">
        <ele>87.972801</ele>
        <time>2025-06-01T09:40:53.000Z</time>
      </trkpt>
      <trkpt lat="52.3884" lon="-1.570127">
        <ele>88.254404</ele>
        <time>2025-06-01T09:40:56.000Z</time>
      </trkpt>
      <trkpt lat="52.388395" lon="-1.570233">
        <ele>88.329677</ele>
        <time>2025-06-01T09:40:57.000Z</time>
      </trkpt>
      <trkpt lat="52.388435" lon="-1.570327">
        <ele>88.414556</ele>
        <time>2025-06-01T09:40:58.000Z</time>
      </trkpt>
      <trkpt lat="52.388482" lon="-1.570332">
        <ele>88.455824</ele>
        <time>2025-06-01T09:40:59.000Z</time>
      </trkpt>
      <trkpt lat="52.388519" lon="-1.57034">
        <ele>88.507741</ele>
        <time>2025-06-01T09:40:59.000Z</time>
      </trkpt>
      <trkpt lat="52.388583" lon="-1.570228">
        <ele>88.614928</ele>
        <time>2025-06-01T09:41:00.000Z</time>
      </trkpt>
      <trkpt lat="52.388851" lon="-1.57">
        <ele>88.954008</ele>
        <time>2025-06-01T09:41:03.000Z</time>
      </trkpt>
      <trkpt lat="52.388926" lon="-1.569948">
        <ele>89.069191</ele>
        <time>2025-06-01T09:41:04.000Z</time>
      </trkpt>
      <trkpt lat="52.389337" lon="-1.569816">
        <ele>89.2309903904</ele>
        <time>2025-06-01T09:41:09.000Z</time>
      </trkpt>
      <trkpt lat="52.389449" lon="-1.569781">
        <ele>89.2750382463</ele>
        <time>2025-06-01T09:41:10.000Z</time>
      </trkpt>
      <trkpt lat="52.39031" lon="-1.569568">
        <ele>89.6114305022</ele>
        <time>2025-06-01T09:41:20.000Z</time>
      </trkpt>
      <trkpt lat="52.390894" lon="-1.569442">
        <ele>89.8389894835</ele>
        <time>2025-06-01T09:41:27.000Z</time>
      </trkpt>
    </trkseg>
  </trk>
</gpx>

<!--
Performance optimized by W3 Total Cache. Learn more: https://www.boldgrid.com/w3-total-cache/?utm_source=w3tc&utm_medium=footer_comment&utm_campaign=free_plugin

Page Caching using Disk: Enhanced{w3tc_pagecache_reject_reason} 

Served from: www.aquabike.world @ 2026-05-10 17:34:40 by W3 Total Cache
-->